Terminal Aerodrome Forecast
Issued by NWS

Home | Current Version | Previous Version | Text Only | Print | Product List | Glossary On
Versions: 1 2 3 4 5 6 7 8 9 10 11 12 13 14 15 16 17 18 19 20
000
FTUS43 KEAX 190100 AAA
TAFSTJ
TAF AMD
KSTJ 190110Z 1901/1924 12004KT P6SM SKC
     FM190500 12005KT 4SM BR OVC007
      TEMPO 1905/1907 SCT007
     FM190800 13005KT 2SM BR OVC004
     FM191500 14007KT P6SM BKN008
     FM191700 17011KT P6SM SCT025
      TEMPO 1917/1920 BKN025=

USA.gov is the U.S. government's official web portal to all federal, state and local government web resources and services.